createdAt,value
2023-05-01T00:01:02.828Z,63.97
2023-05-01T00:03:33.805Z,64.16
2023-05-01T00:06:05.665Z,64.45
2023-05-01T00:08:36.512Z,64.53
2023-05-01T00:11:09.856Z,64.72
2023-05-01T00:13:40.554Z,64.83
2023-05-01T00:16:16.978Z,65.00
2023-05-01T00:18:47.925Z,64.96
2023-05-01T00:21:18.778Z,65.03
2023-05-01T00:23:49.735Z,65.17
2023-05-01T00:26:20.350Z,65.52
2023-05-01T00:28:51.675Z,65.41
2023-05-01T00:31:22.412Z,65.45
2023-05-01T00:33:53.338Z,65.58
2023-05-01T00:36:23.944Z,65.65
2023-05-01T00:38:54.539Z,65.79
2023-05-01T00:41:25.442Z,66.10
2023-05-01T00:43:56.014Z,66.30
2023-05-01T00:46:27.642Z,66.42
2023-05-01T00:48:59.749Z,66.72
2023-05-01T00:51:33.086Z,66.70
2023-05-01T00:54:04.824Z,67.01
2023-05-01T00:56:35.991Z,67.01
2023-05-01T00:59:06.763Z,66.76
2023-05-01T01:01:37.852Z,66.76
2023-05-01T01:04:09.057Z,66.73
2023-05-01T01:06:48.528Z,66.63
2023-05-01T01:09:33.018Z,66.57
2023-05-01T01:12:15.383Z,66.53
2023-05-01T01:14:56.665Z,66.57
2023-05-01T01:17:34.544Z,66.81
2023-05-01T01:20:20.318Z,66.72
2023-05-01T01:22:59.482Z,66.43
2023-05-01T01:25:51.445Z,66.21
2023-05-01T01:28:57.562Z,66.35
2023-05-01T01:31:36.281Z,66.31
2023-05-01T01:34:14.704Z,66.28
2023-05-01T01:36:48.751Z,66.52
2023-05-01T01:39:28.263Z,66.83
2023-05-01T01:42:01.477Z,66.96
2023-05-01T01:44:42.523Z,66.82
2023-05-01T01:47:15.809Z,66.76
2023-05-01T01:49:51.337Z,66.74
2023-05-01T01:52:23.996Z,66.87
2023-05-01T01:54:59.285Z,67.29
2023-05-01T01:57:31.620Z,67.43
2023-05-01T02:00:02.231Z,67.42
2023-05-01T02:02:33.384Z,67.49
2023-05-01T02:05:05.685Z,67.25
2023-05-01T02:07:38.829Z,67.82
2023-05-01T02:10:12.337Z,67.97
2023-05-01T02:12:44.735Z,68.05
2023-05-01T02:15:17.558Z,68.41
2023-05-01T02:17:48.914Z,68.36
2023-05-01T02:20:21.315Z,68.52
2023-05-01T02:22:53.781Z,68.61
2023-05-01T02:25:25.180Z,68.86
2023-05-01T02:28:01.805Z,68.83
2023-05-01T02:30:32.429Z,68.80
2023-05-01T02:33:03.999Z,68.79
2023-05-01T02:35:39.571Z,68.88
2023-05-01T02:38:10.503Z,68.78
2023-05-01T02:40:43.534Z,68.74
2023-05-01T02:43:17.453Z,68.83
2023-05-01T02:45:49.205Z,68.62
2023-05-01T02:48:24.722Z,68.83
2023-05-01T02:50:57.736Z,68.78
2023-05-01T02:53:28.616Z,68.53
2023-05-01T02:55:59.658Z,68.39
2023-05-01T02:58:33.951Z,68.75
2023-05-01T03:01:05.203Z,68.76
2023-05-01T03:03:36.186Z,68.67
2023-05-01T03:06:07.530Z,68.64
2023-05-01T03:08:38.601Z,68.70
2023-05-01T03:11:10.297Z,69.06
2023-05-01T03:13:40.813Z,69.01
2023-05-01T03:16:11.694Z,68.92
2023-05-01T03:18:42.714Z,69.14
2023-05-01T03:21:13.675Z,68.99
2023-05-01T03:23:44.350Z,69.32
2023-05-01T03:26:15.038Z,69.29
2023-05-01T03:28:45.802Z,69.43
2023-05-01T03:31:16.691Z,69.51
2023-05-01T03:33:47.996Z,69.54
2023-05-01T03:36:18.878Z,69.54
2023-05-01T03:38:49.448Z,69.54
2023-05-01T03:41:20.174Z,69.72
2023-05-01T03:43:51.010Z,69.80
2023-05-01T03:46:21.816Z,69.63
2023-05-01T03:48:52.395Z,69.72
2023-05-01T03:51:23.872Z,69.87
2023-05-01T03:53:56.730Z,70.01
2023-05-01T03:56:27.999Z,69.90
2023-05-01T03:59:00.832Z,70.18
2023-05-01T04:01:33.598Z,70.00
2023-05-01T04:04:04.633Z,69.86
2023-05-01T04:06:36.225Z,69.98
2023-05-01T04:09:08.234Z,69.88
2023-05-01T04:11:39.147Z,70.15
2023-05-01T04:14:09.961Z,70.36
2023-05-01T04:16:40.786Z,70.08
2023-05-01T04:19:11.482Z,70.24
2023-05-01T04:21:42.502Z,70.44
2023-05-01T04:24:13.126Z,70.45
2023-05-01T04:26:44.130Z,70.43
2023-05-01T04:29:14.809Z,70.60
2023-05-01T04:31:45.815Z,70.59
2023-05-01T04:34:16.466Z,70.61
2023-05-01T04:36:47.447Z,70.57
2023-05-01T04:39:18.304Z,71.12
2023-05-01T04:41:48.794Z,71.27
2023-05-01T04:44:19.337Z,71.18
2023-05-01T04:46:49.862Z,71.27
2023-05-01T04:49:20.547Z,71.23
2023-05-01T04:51:51.850Z,71.44
2023-05-01T04:54:23.252Z,71.12
2023-05-01T04:56:54.076Z,70.75
2023-05-01T04:59:24.725Z,70.94
2023-05-01T05:01:55.903Z,70.94
2023-05-01T05:04:27.137Z,71.11
2023-05-01T05:06:57.748Z,70.93
2023-05-01T05:09:28.334Z,70.76
2023-05-01T05:11:59.032Z,70.73
2023-05-01T05:14:29.606Z,70.68
2023-05-01T05:17:00.262Z,70.74
2023-05-01T05:19:31.318Z,70.66
2023-05-01T05:22:02.766Z,70.50
2023-05-01T05:24:33.843Z,70.97
2023-05-01T05:27:04.740Z,70.93
2023-05-01T05:29:36.512Z,70.91
2023-05-01T05:32:07.608Z,71.04
2023-05-01T05:34:39.081Z,71.10
2023-05-01T05:37:09.619Z,71.30
2023-05-01T05:39:40.608Z,71.61
2023-05-01T05:42:11.087Z,71.73
2023-05-01T05:44:41.768Z,72.02
2023-05-01T05:47:12.557Z,71.82
2023-05-01T05:49:43.827Z,71.62
2023-05-01T05:52:14.676Z,71.15
2023-05-01T05:54:45.600Z,70.71
2023-05-01T05:57:16.210Z,70.68
2023-05-01T05:59:47.494Z,70.69
2023-05-01T06:02:18.054Z,71.05
2023-05-01T06:04:49.008Z,71.42
2023-05-01T06:07:19.922Z,71.75
2023-05-01T06:09:50.622Z,71.76
2023-05-01T06:12:21.768Z,71.50
2023-05-01T06:14:53.596Z,71.77
2023-05-01T06:17:25.120Z,71.41
2023-05-01T06:19:56.114Z,71.66
2023-05-01T06:22:26.888Z,71.90
2023-05-01T06:24:57.740Z,71.78
2023-05-01T06:27:28.731Z,71.74
2023-05-01T06:29:59.335Z,71.53
2023-05-01T06:32:30.329Z,71.20
2023-05-01T06:35:01.006Z,70.96
2023-05-01T06:37:31.620Z,70.87
2023-05-01T06:40:02.237Z,70.34
2023-05-01T06:42:33.048Z,70.25
2023-05-01T06:45:03.890Z,69.74
2023-05-01T06:47:34.548Z,69.29
2023-05-01T06:50:06.029Z,68.98
2023-05-01T06:52:37.114Z,69.26
2023-05-01T06:55:08.735Z,69.17
2023-05-01T06:57:40.231Z,67.37
2023-05-01T07:00:12.885Z,66.39
2023-05-01T07:02:46.063Z,65.61
2023-05-01T07:05:16.813Z,65.33
2023-05-01T07:07:54.154Z,63.91
2023-05-01T07:10:31.459Z,63.99
2023-05-01T07:13:02.157Z,63.26
2023-05-01T07:15:34.236Z,61.08
2023-05-01T07:18:07.083Z,61.06
2023-05-01T07:20:37.781Z,60.53
2023-05-01T07:23:09.860Z,60.29
2023-05-01T07:25:44.470Z,60.06
2023-05-01T07:28:15.830Z,59.65
2023-05-01T07:30:46.669Z,58.83
2023-05-01T07:33:17.665Z,59.48
2023-05-01T07:35:48.403Z,58.56
2023-05-01T07:38:20.951Z,58.05
2023-05-01T07:40:57.064Z,57.96
2023-05-01T07:43:27.690Z,58.01
2023-05-01T07:46:00.571Z,57.31
2023-05-01T07:48:33.006Z,57.15
2023-05-01T07:51:06.351Z,56.72
2023-05-01T07:53:37.105Z,56.07
2023-05-01T07:56:11.813Z,56.09
2023-05-01T07:58:42.717Z,56.54
2023-05-01T08:01:14.330Z,56.29
2023-05-01T08:03:45.020Z,55.16
2023-05-01T08:06:15.841Z,55.27
2023-05-01T08:08:49.363Z,55.40
2023-05-01T08:11:20.262Z,54.25
2023-05-01T08:13:51.631Z,53.76
2023-05-01T08:16:22.993Z,54.19
2023-05-01T08:18:53.877Z,54.53
2023-05-01T08:21:25.022Z,54.25
2023-05-01T08:23:57.611Z,53.63
2023-05-01T08:26:28.817Z,53.99
2023-05-01T08:28:59.290Z,54.29
2023-05-01T08:31:30.235Z,53.82
2023-05-01T08:34:01.138Z,54.36
2023-05-01T08:36:32.913Z,53.87
2023-05-01T08:39:03.929Z,54.58
2023-05-01T08:41:35.833Z,54.90
2023-05-01T08:44:08.899Z,55.09
2023-05-01T08:46:48.851Z,54.87
2023-05-01T08:49:20.821Z,54.86
2023-05-01T08:51:56.845Z,54.04
2023-05-01T08:54:32.245Z,53.87
2023-05-01T08:57:05.981Z,54.44
2023-05-01T08:59:38.723Z,53.93
2023-05-01T09:02:11.266Z,53.58
2023-05-01T09:04:42.897Z,53.79
2023-05-01T09:07:14.254Z,54.03
2023-05-01T09:09:44.968Z,53.92
2023-05-01T09:12:24.196Z,53.58
2023-05-01T09:14:56.285Z,52.97
2023-05-01T09:17:27.481Z,53.10
2023-05-01T09:19:58.534Z,52.21
2023-05-01T09:22:31.295Z,52.52
2023-05-01T09:25:02.120Z,52.88
2023-05-01T09:27:35.058Z,52.93
2023-05-01T09:30:06.563Z,52.98
2023-05-01T09:32:38.048Z,53.07
2023-05-01T09:35:17.971Z,53.32
2023-05-01T09:37:52.214Z,53.50
2023-05-01T09:40:28.233Z,52.97
2023-05-01T09:42:59.272Z,52.15
2023-05-01T09:45:30.358Z,51.38
2023-05-01T09:48:12.300Z,51.68
2023-05-01T09:50:43.451Z,52.33
2023-05-01T09:53:14.897Z,52.27
2023-05-01T09:56:00.978Z,51.27
2023-05-01T09:58:32.326Z,51.08
2023-05-01T10:01:03.040Z,50.98
2023-05-01T10:03:35.096Z,50.89
2023-05-01T10:06:06.241Z,51.25
2023-05-01T10:08:50.679Z,51.34
2023-05-01T10:11:21.965Z,50.70
2023-05-01T10:14:09.426Z,50.21
2023-05-01T10:16:39.116Z,50.19
2023-05-01T10:19:11.060Z,50.12
2023-05-01T10:21:42.754Z,49.54
2023-05-01T10:24:15.197Z,49.61
2023-05-01T10:26:49.137Z,49.34
2023-05-01T10:29:23.206Z,49.03
2023-05-01T10:31:54.108Z,49.30
2023-05-01T10:34:28.400Z,49.26
2023-05-01T10:37:03.874Z,49.12
2023-05-01T10:39:35.797Z,49.35
2023-05-01T10:42:14.301Z,49.21
2023-05-01T10:44:47.856Z,48.62
2023-05-01T10:47:48.934Z,47.62
2023-05-01T10:50:19.622Z,47.73
2023-05-01T10:53:20.169Z,48.24
2023-05-01T10:55:52.031Z,48.78
2023-05-01T10:58:59.726Z,48.29
2023-05-01T11:01:37.933Z,48.75
2023-05-01T11:04:30.094Z,48.52
2023-05-01T11:07:19.089Z,48.49
2023-05-01T11:09:51.271Z,48.57
2023-05-01T11:12:57.441Z,48.33
2023-05-01T11:15:35.396Z,47.35
2023-05-01T11:18:07.308Z,47.31
2023-05-01T11:20:51.772Z,48.06
2023-05-01T11:23:25.531Z,47.84
2023-05-01T11:26:06.360Z,48.33
2023-05-01T11:28:39.447Z,48.17
2023-05-01T11:31:11.623Z,47.82
2023-05-01T11:33:42.732Z,48.22
2023-05-01T11:36:14.153Z,48.56
2023-05-01T11:38:53.648Z,48.87
2023-05-01T11:41:25.406Z,48.41
2023-05-01T11:43:57.084Z,48.35
2023-05-01T11:46:28.759Z,47.92
2023-05-01T11:49:01.078Z,48.35
2023-05-01T11:51:32.646Z,48.76
2023-05-01T11:54:04.799Z,47.84
2023-05-01T11:56:36.776Z,47.48
2023-05-01T11:59:16.089Z,46.83
2023-05-01T12:01:47.849Z,46.87
2023-05-01T12:04:31.628Z,46.98
2023-05-01T12:07:03.445Z,46.90
2023-05-01T12:09:35.004Z,47.33
2023-05-01T12:12:06.136Z,47.27
2023-05-01T12:14:37.289Z,47.92
2023-05-01T12:17:09.828Z,47.64
2023-05-01T12:19:49.921Z,47.62
2023-05-01T12:22:20.652Z,47.07
2023-05-01T12:24:55.209Z,46.87
2023-05-01T12:27:25.852Z,47.01
2023-05-01T12:29:56.729Z,46.66
2023-05-01T12:32:35.508Z,46.37
2023-05-01T12:35:17.202Z,46.58
2023-05-01T12:37:48.036Z,46.42
2023-05-01T12:40:19.685Z,45.93
2023-05-01T12:42:57.967Z,45.58
2023-05-01T12:45:28.887Z,45.74
2023-05-01T12:48:00.234Z,44.78
2023-05-01T12:50:37.136Z,44.17
2023-05-01T12:53:09.658Z,44.67
2023-05-01T12:55:51.703Z,44.53
2023-05-01T12:58:23.713Z,43.96
2023-05-01T13:00:56.058Z,42.84
2023-05-01T13:03:28.542Z,43.23
2023-05-01T13:06:01.233Z,43.72
2023-05-01T13:08:33.996Z,43.93
2023-05-01T13:11:13.269Z,44.36
2023-05-01T13:13:46.066Z,44.86
2023-05-01T13:16:18.301Z,44.56
2023-05-01T13:18:50.380Z,45.80
2023-05-01T13:21:23.586Z,44.58
2023-05-01T13:23:57.756Z,43.57
2023-05-01T13:26:32.890Z,43.73
2023-05-01T13:29:05.674Z,43.55
2023-05-01T13:31:36.809Z,43.82
2023-05-01T13:34:07.683Z,44.47
2023-05-01T13:36:41.133Z,44.48
2023-05-01T13:39:21.063Z,44.24
2023-05-01T13:41:52.814Z,43.15
2023-05-01T13:44:24.134Z,42.80
2023-05-01T13:46:55.067Z,42.69
2023-05-01T13:49:26.370Z,42.96
2023-05-01T13:51:57.883Z,43.87
2023-05-01T13:54:28.507Z,42.50
2023-05-01T13:56:59.228Z,41.50
2023-05-01T13:59:38.285Z,41.21
2023-05-01T14:02:18.931Z,41.62
2023-05-01T14:04:49.833Z,41.94
2023-05-01T14:07:22.828Z,42.56
2023-05-01T14:09:56.736Z,42.95
2023-05-01T14:12:30.127Z,43.03
2023-05-01T14:15:01.796Z,43.04
2023-05-01T14:17:35.165Z,42.35
2023-05-01T14:20:06.873Z,42.60
2023-05-01T14:22:44.752Z,42.39
2023-05-01T14:25:31.323Z,42.00
2023-05-01T14:28:05.825Z,42.35
2023-05-01T14:30:38.538Z,42.64
2023-05-01T14:33:11.195Z,42.38
2023-05-01T14:35:49.515Z,41.80
2023-05-01T14:38:21.475Z,41.56
2023-05-01T14:40:52.186Z,42.39
2023-05-01T14:43:23.352Z,41.86
2023-05-01T14:45:54.738Z,42.12
2023-05-01T14:48:26.696Z,42.40
2023-05-01T14:50:58.386Z,42.81
2023-05-01T14:54:11.893Z,42.89
2023-05-01T14:56:43.261Z,42.88
2023-05-01T14:59:13.969Z,42.75
2023-05-01T15:01:45.063Z,42.43
2023-05-01T15:04:15.902Z,41.41
2023-05-01T15:06:47.029Z,41.49
2023-05-01T15:09:17.693Z,42.18
2023-05-01T15:11:48.615Z,41.48
2023-05-01T15:14:19.750Z,41.13
2023-05-01T15:16:50.657Z,40.12
2023-05-01T15:19:22.555Z,41.54
2023-05-01T15:21:53.351Z,41.74
2023-05-01T15:24:24.400Z,40.79
2023-05-01T15:26:54.957Z,40.76
2023-05-01T15:29:25.591Z,39.81
2023-05-01T15:32:08.244Z,39.22
2023-05-01T15:34:42.840Z,39.73
2023-05-01T15:37:13.829Z,40.36
2023-05-01T15:39:44.728Z,40.67
2023-05-01T15:42:15.313Z,40.14
2023-05-01T15:44:45.866Z,40.87
2023-05-01T15:47:16.620Z,40.40
2023-05-01T15:49:47.222Z,39.81
2023-05-01T15:52:17.822Z,39.71
2023-05-01T15:54:50.010Z,39.83
2023-05-01T15:57:23.845Z,38.85
2023-05-01T15:59:55.846Z,39.77
2023-05-01T16:02:28.626Z,39.35
2023-05-01T16:04:59.267Z,39.20
2023-05-01T16:07:31.494Z,38.76
2023-05-01T16:10:02.751Z,38.86
2023-05-01T16:12:32.187Z,38.77
2023-05-01T16:15:05.115Z,38.20
2023-05-01T16:17:46.573Z,38.29
2023-05-01T16:20:17.413Z,38.64
2023-05-01T16:22:47.990Z,39.52
2023-05-01T16:25:19.464Z,39.57
2023-05-01T16:27:50.357Z,39.18
2023-05-01T16:30:22.014Z,38.44
2023-05-01T16:32:52.674Z,37.48
2023-05-01T16:35:28.559Z,38.16
2023-05-01T16:38:00.497Z,38.11
2023-05-01T16:40:31.232Z,37.74
2023-05-01T16:43:02.692Z,38.32
2023-05-01T16:45:33.835Z,38.30
2023-05-01T16:48:04.931Z,38.41
2023-05-01T16:50:38.016Z,37.96
2023-05-01T16:53:08.484Z,37.66
2023-05-01T16:55:38.988Z,36.45
2023-05-01T16:58:09.575Z,36.45
2023-05-01T17:00:41.224Z,36.75
2023-05-01T17:03:11.888Z,35.79
2023-05-01T17:05:42.877Z,35.77
2023-05-01T17:08:13.306Z,35.72
2023-05-01T17:10:45.047Z,36.80
2023-05-01T17:13:16.111Z,37.20
2023-05-01T17:15:46.797Z,36.68
2023-05-01T17:18:17.391Z,36.83
2023-05-01T17:20:48.565Z,37.03
2023-05-01T17:23:20.076Z,37.17
2023-05-01T17:25:51.095Z,37.42
2023-05-01T17:28:22.054Z,38.11
2023-05-01T17:30:52.917Z,39.16
2023-05-01T17:33:23.415Z,40.04
2023-05-01T17:35:55.687Z,40.64
2023-05-01T17:38:26.305Z,40.64
2023-05-01T17:40:57.010Z,40.77
2023-05-01T17:43:27.784Z,40.59
2023-05-01T17:45:58.528Z,40.14
2023-05-01T17:48:29.295Z,40.23
2023-05-01T17:51:00.023Z,40.22
2023-05-01T17:53:30.990Z,40.03
2023-05-01T17:56:02.077Z,40.76
2023-05-01T17:58:33.087Z,40.71
2023-05-01T18:01:04.934Z,40.43
2023-05-01T18:03:36.156Z,40.67
2023-05-01T18:06:06.804Z,40.36
2023-05-01T18:08:37.425Z,40.39
2023-05-01T18:11:08.157Z,40.49
2023-05-01T18:13:39.905Z,40.08
2023-05-01T18:16:11.876Z,40.52
2023-05-01T18:18:42.581Z,40.64
2023-05-01T18:21:13.602Z,40.69
2023-05-01T18:23:45.448Z,40.83
2023-05-01T18:26:17.711Z,41.07
2023-05-01T18:28:48.205Z,41.32
2023-05-01T18:31:19.151Z,41.60
2023-05-01T18:33:49.839Z,41.64
2023-05-01T18:36:20.582Z,41.87
2023-05-01T18:38:51.955Z,42.78
2023-05-01T18:41:22.813Z,43.76
2023-05-01T18:43:56.365Z,44.18
2023-05-01T18:46:29.013Z,44.67
2023-05-01T18:49:00.216Z,45.35
2023-05-01T18:51:31.315Z,45.35
2023-05-01T18:54:04.733Z,45.96
2023-05-01T18:56:35.552Z,46.32
2023-05-01T18:59:06.216Z,46.35
2023-05-01T19:01:37.914Z,46.23
2023-05-01T19:04:08.598Z,45.51
2023-05-01T19:06:40.800Z,45.19
2023-05-01T19:09:11.471Z,44.98
2023-05-01T19:11:42.315Z,45.06
2023-05-01T19:14:13.185Z,45.18
2023-05-01T19:16:43.850Z,45.46
2023-05-01T19:19:14.785Z,45.36
2023-05-01T19:21:45.549Z,45.33
2023-05-01T19:24:16.094Z,45.62
2023-05-01T19:26:46.647Z,45.70
2023-05-01T19:29:17.590Z,46.62
2023-05-01T19:31:48.321Z,47.19
2023-05-01T19:34:19.342Z,48.20
2023-05-01T19:36:54.847Z,49.02
2023-05-01T19:39:25.424Z,49.30
2023-05-01T19:41:56.360Z,50.00
2023-05-01T19:44:26.980Z,50.51
2023-05-01T19:46:57.706Z,51.39
2023-05-01T19:49:28.261Z,51.85
2023-05-01T19:51:59.367Z,52.09
2023-05-01T19:54:29.956Z,52.46
2023-05-01T19:57:00.633Z,52.71
2023-05-01T19:59:31.210Z,52.90
2023-05-01T20:02:02.137Z,53.28
2023-05-01T20:04:32.997Z,53.75
2023-05-01T20:07:04.659Z,54.01
2023-05-01T20:09:35.705Z,54.28
2023-05-01T20:12:06.668Z,54.61
2023-05-01T20:14:37.947Z,54.94
2023-05-01T20:17:09.391Z,55.09
2023-05-01T20:19:40.128Z,55.26
2023-05-01T20:22:11.204Z,55.37
2023-05-01T20:24:41.780Z,55.36
2023-05-01T20:27:12.609Z,55.49
2023-05-01T20:29:43.928Z,55.49
2023-05-01T20:32:14.439Z,55.58
2023-05-01T20:34:45.353Z,55.64
2023-05-01T20:37:16.734Z,55.65
2023-05-01T20:39:47.339Z,55.63
2023-05-01T20:42:18.234Z,55.62
2023-05-01T20:44:49.044Z,55.56
2023-05-01T20:47:19.853Z,55.50
2023-05-01T20:49:50.520Z,55.35
2023-05-01T20:52:21.362Z,55.67
2023-05-01T20:54:52.046Z,56.34
2023-05-01T20:57:23.080Z,56.44
2023-05-01T20:59:54.163Z,56.78
2023-05-01T21:02:24.762Z,56.78
2023-05-01T21:04:55.635Z,56.86
2023-05-01T21:07:26.515Z,57.16
2023-05-01T21:09:57.890Z,57.69
2023-05-01T21:12:30.981Z,58.23
2023-05-01T21:15:02.648Z,58.24
2023-05-01T21:17:35.973Z,58.43
2023-05-01T21:20:11.967Z,58.56
2023-05-01T21:22:49.390Z,58.95
2023-05-01T21:25:29.856Z,59.27
2023-05-01T21:28:02.036Z,59.34
2023-05-01T21:30:34.940Z,60.08
2023-05-01T21:33:08.873Z,60.11
2023-05-01T21:35:42.179Z,60.27
2023-05-01T21:38:13.515Z,60.67
2023-05-01T21:40:46.097Z,61.16
2023-05-01T21:43:17.125Z,61.59
2023-05-01T21:45:47.545Z,61.53
2023-05-01T21:48:20.251Z,61.68
2023-05-01T21:50:52.348Z,62.08
2023-05-01T21:53:23.610Z,62.40
2023-05-01T21:55:54.620Z,62.50
2023-05-01T21:58:25.342Z,62.41
2023-05-01T22:00:56.551Z,62.33
2023-05-01T22:03:28.355Z,62.32
2023-05-01T22:06:01.678Z,62.44
2023-05-01T22:08:32.536Z,62.28
2023-05-01T22:11:03.980Z,62.32
2023-05-01T22:13:35.576Z,62.16
2023-05-01T22:16:06.916Z,62.01
2023-05-01T22:18:37.622Z,62.04
2023-05-01T22:21:08.537Z,61.80
2023-05-01T22:23:39.468Z,61.72
2023-05-01T22:26:10.319Z,62.52
2023-05-01T22:28:40.916Z,63.12
2023-05-01T22:31:11.656Z,63.32
2023-05-01T22:33:42.566Z,63.20
2023-05-01T22:36:13.184Z,63.24
2023-05-01T22:38:43.891Z,63.16
2023-05-01T22:41:15.034Z,63.55
2023-05-01T22:43:46.345Z,63.60
2023-05-01T22:46:17.304Z,63.94
2023-05-01T22:48:48.013Z,63.88
2023-05-01T22:51:18.621Z,64.10
2023-05-01T22:53:49.656Z,64.20
2023-05-01T22:56:21.004Z,64.21
2023-05-01T22:58:51.672Z,64.30
2023-05-01T23:01:23.706Z,64.35
2023-05-01T23:03:54.805Z,64.57
2023-05-01T23:06:25.461Z,64.85
2023-05-01T23:08:56.395Z,65.10
2023-05-01T23:11:31.587Z,65.31
2023-05-01T23:14:02.849Z,65.32
2023-05-01T23:16:38.537Z,65.51
2023-05-01T23:19:18.467Z,65.52
2023-05-01T23:21:49.967Z,65.70
2023-05-01T23:24:22.161Z,65.83
2023-05-01T23:26:52.891Z,65.71
2023-05-01T23:29:23.850Z,65.82
2023-05-01T23:31:54.598Z,65.73
2023-05-01T23:34:25.299Z,65.64
2023-05-01T23:36:56.317Z,65.66
2023-05-01T23:39:27.516Z,65.69
2023-05-01T23:41:58.679Z,65.79
2023-05-01T23:44:29.744Z,66.01
2023-05-01T23:47:00.478Z,66.17
2023-05-01T23:49:31.376Z,66.26
2023-05-01T23:52:02.235Z,66.23
2023-05-01T23:54:33.305Z,66.22
2023-05-01T23:57:04.040Z,66.27
2023-05-01T23:59:34.638Z,66.26
